Time;durP1;ratioP1;P1;durP2;ratioP2;P2;SDS_P1;SDS_P2;PMS_P1;PMS_P2;Temp;Humidity;BMP_temperature;BMP_pressure;BME280_temperature;BME280_humidity;BME280_pressure;Samples;Min_cycle;Max_cycle;Signal;HPM_P1;HPM_P2
2023/12/26 00:02:19;;;;;;;10.40;4.35;;;6.60;99.90;;;;;;4994189;28;20023;-75
2023/12/26 00:04:57;;;;;;;8.10;4.20;;;6.50;99.90;;;;;;4994667;28;20029;-76
2023/12/26 00:07:23;;;;;;;7.25;3.75;;;6.50;99.90;;;;;;4993221;28;20648;-76
2023/12/26 00:09:49;;;;;;;7.75;3.90;;;6.50;99.90;;;;;;4992176;28;20054;-76
2023/12/26 00:12:18;;;;;;;4.28;2.60;;;6.50;99.90;;;;;;4994215;28;20058;-75
2023/12/26 00:14:44;;;;;;;5.93;2.90;;;6.40;99.90;;;;;;4995066;28;20029;-76
2023/12/26 00:17:09;;;;;;;3.78;2.22;;;6.40;99.90;;;;;;4994939;28;20022;-75
2023/12/26 00:19:38;;;;;;;8.88;2.58;;;6.40;99.90;;;;;;4997037;28;20015;-74
2023/12/26 00:22:03;;;;;;;7.32;3.65;;;6.40;99.90;;;;;;4993276;28;20034;-76
2023/12/26 00:24:32;;;;;;;6.55;3.50;;;6.40;99.90;;;;;;4992740;28;21047;-76
2023/12/26 00:27:06;;;;;;;9.00;3.58;;;6.30;99.90;;;;;;4988341;28;20469;-75
2023/12/26 00:29:32;;;;;;;7.00;4.07;;;6.30;99.90;;;;;;4992707;28;20022;-76
2023/12/26 00:31:58;;;;;;;9.35;4.28;;;6.30;99.90;;;;;;4993988;28;20033;-75
2023/12/26 00:34:23;;;;;;;9.77;4.93;;;6.20;99.90;;;;;;4996783;28;20019;-76
2023/12/26 00:36:49;;;;;;;11.82;5.03;;;6.20;99.90;;;;;;4989953;28;20078;-76
2023/12/26 00:39:14;;;;;;;12.25;4.95;;;6.20;99.90;;;;;;4995775;28;20064;-77
2023/12/26 00:41:40;;;;;;;7.43;4.00;;;6.20;99.90;;;;;;4992910;28;20109;-75
2023/12/26 00:44:06;;;;;;;6.57;4.13;;;6.10;99.90;;;;;;4991453;28;20086;-78
2023/12/26 00:46:32;;;;;;;9.07;4.20;;;6.10;99.90;;;;;;4993716;28;20033;-76
2023/12/26 00:49:01;;;;;;;9.20;4.18;;;6.10;99.90;;;;;;4996248;28;20108;-76
2023/12/26 00:51:27;;;;;;;8.43;3.95;;;6.00;99.90;;;;;;5016194;23;20128;-76
2023/12/26 00:53:53;;;;;;;8.27;4.40;;;6.10;99.90;;;;;;4997479;28;20465;-75
2023/12/26 00:56:22;;;;;;;9.18;3.53;;;6.00;99.90;;;;;;5006187;28;20026;-76
2023/12/26 00:58:48;;;;;;;7.53;3.83;;;6.00;99.90;;;;;;5018720;28;20035;-75
2023/12/26 01:01:14;;;;;;;8.40;4.00;;;6.00;99.90;;;;;;5008259;28;20109;-76
2023/12/26 01:03:42;;;;;;;7.93;3.60;;;5.90;99.90;;;;;;5010265;28;20041;-75
2023/12/26 01:06:08;;;;;;;9.68;3.72;;;5.90;99.90;;;;;;5007033;28;20492;-76
2023/12/26 01:08:34;;;;;;;6.57;3.38;;;5.90;99.90;;;;;;4987554;28;20069;-75
2023/12/26 01:10:59;;;;;;;6.15;3.67;;;5.90;99.90;;;;;;5010407;28;20037;-76
2023/12/26 01:13:34;;;;;;;8.23;3.55;;;5.90;99.90;;;;;;4996839;28;20113;-76
2023/12/26 01:16:04;;;;;;;8.45;3.63;;;5.80;99.90;;;;;;5010646;28;20037;-76
2023/12/26 01:18:30;;;;;;;9.82;3.58;;;5.80;99.90;;;;;;5012428;28;20018;-75
2023/12/26 01:20:56;;;;;;;7.10;3.55;;;5.80;99.90;;;;;;5018955;28;20013;-76
2023/12/26 01:23:26;;;;;;;7.97;3.08;;;5.80;99.90;;;;;;5007865;28;20028;-76
2023/12/26 01:25:52;;;;;;;8.18;3.67;;;5.80;99.90;;;;;;5009185;28;20091;-75
2023/12/26 01:28:20;;;;;;;8.77;3.50;;;5.80;99.90;;;;;;5009162;28;20033;-76
2023/12/26 01:30:49;;;;;;;11.38;4.97;;;5.80;99.90;;;;;;5018563;28;20010;-75
2023/12/26 01:33:20;;;;;;;7.50;3.97;;;5.80;99.90;;;;;;5009915;28;20018;-76
2023/12/26 01:35:46;;;;;;;7.72;3.80;;;5.80;99.90;;;;;;5003639;28;20451;-76
2023/12/26 01:38:14;;;;;;;7.55;4.18;;;5.80;99.90;;;;;;5012780;28;20049;-76
2023/12/26 01:40:40;;;;;;;8.75;4.05;;;5.80;99.90;;;;;;5007986;28;20030;-76
2023/12/26 01:43:09;;;;;;;8.18;3.38;;;5.70;99.90;;;;;;5004536;28;20032;-76
2023/12/26 01:45:35;;;;;;;7.35;3.42;;;5.80;99.90;;;;;;5006524;28;20018;-76
2023/12/26 01:48:03;;;;;;;8.18;3.60;;;5.70;99.90;;;;;;5011811;28;20436;-76
2023/12/26 01:50:33;;;;;;;7.53;3.03;;;5.70;99.90;;;;;;5010212;28;20061;-76
2023/12/26 01:52:59;;;;;;;5.88;2.38;;;5.70;99.90;;;;;;5008847;28;20021;-76
2023/12/26 01:55:28;;;;;;;7.28;3.00;;;5.70;99.90;;;;;;5010952;28;20269;-75
2023/12/26 01:57:57;;;;;;;4.40;2.33;;;5.70;99.90;;;;;;5013280;28;20022;-76
2023/12/26 02:00:23;;;;;;;5.90;2.40;;;5.70;99.90;;;;;;5006873;28;20027;-74
2023/12/26 02:02:52;;;;;;;8.50;2.78;;;5.70;99.90;;;;;;5008865;28;20400;-74
2023/12/26 02:05:21;;;;;;;6.03;2.47;;;5.70;99.90;;;;;;5008254;28;22046;-74
2023/12/26 02:07:49;;;;;;;6.30;2.60;;;5.70;99.90;;;;;;5010613;28;20026;-77
2023/12/26 02:10:15;;;;;;;8.98;2.67;;;5.60;99.90;;;;;;5012425;28;20040;-76
2023/12/26 02:12:41;;;;;;;5.22;2.40;;;5.60;99.90;;;;;;5009501;28;20284;-76
2023/12/26 02:15:07;;;;;;;5.57;3.28;;;5.60;99.90;;;;;;5012652;28;20125;-75
2023/12/26 02:17:35;;;;;;;5.68;2.35;;;5.50;99.90;;;;;;5007034;28;20065;-75
2023/12/26 02:20:00;;;;;;;5.03;2.30;;;5.50;99.90;;;;;;5012915;28;20022;-75
2023/12/26 02:22:32;;;;;;;5.63;2.33;;;5.50;99.90;;;;;;5010750;28;20033;-75
2023/12/26 02:25:00;;;;;;;4.75;2.03;;;5.50;99.90;;;;;;5008734;28;20036;-75
2023/12/26 02:27:29;;;;;;;5.25;2.15;;;5.50;99.90;;;;;;5012922;28;20029;-75
2023/12/26 02:29:57;;;;;;;3.83;1.80;;;5.60;99.90;;;;;;5010481;28;20030;-75
2023/12/26 02:32:25;;;;;;;3.47;1.23;;;5.60;99.90;;;;;;5009466;28;20137;-75
2023/12/26 02:34:55;;;;;;;2.83;1.20;;;5.60;99.90;;;;;;5005989;28;20467;-75
2023/12/26 02:37:24;;;;;;;3.97;1.23;;;5.60;99.90;;;;;;5010848;28;20026;-75
2023/12/26 02:39:50;;;;;;;3.08;0.93;;;5.70;99.90;;;;;;5012130;28;20024;-75
2023/12/26 02:42:20;;;;;;;2.53;0.95;;;5.80;99.90;;;;;;5015611;28;20112;-75
2023/12/26 02:44:46;;;;;;;5.93;1.40;;;5.80;99.90;;;;;;4997231;28;20114;-76
2023/12/26 02:47:13;;;;;;;1.80;0.85;;;5.90;99.90;;;;;;5016955;28;20475;-75
2023/12/26 02:49:39;;;;;;;3.97;1.00;;;6.00;99.90;;;;;;5000428;28;20040;-75
2023/12/26 02:52:05;;;;;;;1.88;1.08;;;6.00;99.90;;;;;;5013236;28;20022;-76
2023/12/26 02:54:30;;;;;;;5.47;1.10;;;6.10;99.90;;;;;;5014564;28;20036;-75
2023/12/26 02:56:56;;;;;;;4.05;1.40;;;6.10;99.90;;;;;;5015312;28;20033;-76
2023/12/26 02:59:22;;;;;;;5.38;1.17;;;6.20;99.90;;;;;;4998284;28;20018;-75
2023/12/26 03:01:48;;;;;;;4.18;1.05;;;6.20;99.90;;;;;;4998701;28;20037;-76
2023/12/26 03:04:14;;;;;;;2.72;1.08;;;6.20;99.90;;;;;;5011422;28;20026;-76
2023/12/26 03:06:39;;;;;;;4.10;1.27;;;6.30;99.90;;;;;;5014846;28;20026;-75
2023/12/26 03:09:05;;;;;;;4.05;1.13;;;6.30;99.90;;;;;;5012735;28;20508;-76
2023/12/26 03:11:31;;;;;;;3.33;1.10;;;6.30;99.90;;;;;;5015252;28;20041;-74
2023/12/26 03:13:58;;;;;;;5.53;1.27;;;6.40;99.90;;;;;;5014354;28;20516;-75
2023/12/26 03:16:23;;;;;;;2.03;1.17;;;6.40;99.90;;;;;;4993243;28;20021;-75
2023/12/26 03:18:49;;;;;;;3.17;0.80;;;6.50;99.90;;;;;;5018973;28;20026;-77
2023/12/26 03:21:15;;;;;;;7.13;1.33;;;6.50;99.90;;;;;;4998989;28;20026;-75
2023/12/26 03:23:40;;;;;;;3.33;1.27;;;6.50;99.90;;;;;;5015634;28;20033;-76
2023/12/26 03:26:08;;;;;;;2.65;0.90;;;6.50;99.90;;;;;;5016677;28;20618;-74
2023/12/26 03:28:34;;;;;;;5.85;1.00;;;6.60;99.90;;;;;;5013336;28;20101;-75
2023/12/26 03:31:02;;;;;;;3.63;0.98;;;6.60;99.90;;;;;;5013790;28;20022;-75
2023/12/26 03:33:28;;;;;;;6.40;1.13;;;6.60;99.90;;;;;;5006548;28;20032;-75
2023/12/26 03:35:53;;;;;;;1.75;0.95;;;6.60;99.90;;;;;;5016240;28;20023;-75
2023/12/26 03:38:19;;;;;;;3.95;0.88;;;6.60;99.90;;;;;;5012775;28;20033;-75
2023/12/26 03:40:45;;;;;;;3.08;1.23;;;6.70;99.90;;;;;;5013778;28;20358;-75
2023/12/26 03:43:10;;;;;;;5.25;1.00;;;6.70;99.90;;;;;;5011572;28;20473;-75
2023/12/26 03:45:36;;;;;;;3.42;1.10;;;6.70;99.90;;;;;;5018185;28;20025;-75
2023/12/26 03:48:02;;;;;;;3.97;1.05;;;6.70;99.90;;;;;;5016447;28;20436;-75
2023/12/26 03:50:28;;;;;;;5.35;1.20;;;6.70;99.90;;;;;;5012828;28;20076;-74
2023/12/26 03:52:54;;;;;;;4.60;1.25;;;6.70;99.90;;;;;;5018417;28;20034;-75
2023/12/26 03:55:20;;;;;;;3.65;1.10;;;6.70;99.90;;;;;;5014085;28;20048;-75
2023/12/26 03:57:46;;;;;;;6.80;1.20;;;6.70;99.90;;;;;;5014165;28;20033;-75
2023/12/26 04:00:12;;;;;;;2.65;1.00;;;6.80;99.90;;;;;;5017910;28;20025;-75
2023/12/26 04:02:40;;;;;;;3.42;1.40;;;6.80;99.90;;;;;;5012184;28;20030;-75
2023/12/26 04:05:06;;;;;;;3.63;0.93;;;6.80;99.90;;;;;;5011149;28;20374;-75
2023/12/26 04:07:32;;;;;;;5.47;1.00;;;6.80;99.90;;;;;;5009898;28;20041;-75
2023/12/26 04:09:58;;;;;;;5.43;0.98;;;6.80;99.90;;;;;;5012957;28;20018;-75
2023/12/26 04:12:24;;;;;;;6.47;1.38;;;6.90;99.90;;;;;;5012420;28;20025;-75
2023/12/26 04:14:49;;;;;;;5.28;1.02;;;6.90;99.90;;;;;;5010696;28;20037;-76
2023/12/26 04:17:16;;;;;;;2.33;1.00;;;6.90;99.90;;;;;;5016507;28;20022;-74
2023/12/26 04:19:42;;;;;;;3.10;1.40;;;6.90;99.90;;;;;;5007645;28;20018;-74
2023/12/26 04:22:09;;;;;;;4.55;1.10;;;6.90;99.90;;;;;;5009766;28;20036;-77
2023/12/26 04:24:35;;;;;;;2.20;1.00;;;7.00;99.90;;;;;;5007634;28;20022;-76
2023/12/26 04:27:01;;;;;;;2.88;1.33;;;7.00;99.90;;;;;;5012335;28;20025;-76
2023/12/26 04:29:27;;;;;;;2.97;1.58;;;7.00;99.90;;;;;;5007214;28;20400;-76
2023/12/26 04:31:52;;;;;;;2.88;1.10;;;7.00;99.90;;;;;;5014923;28;20061;-76
2023/12/26 04:34:18;;;;;;;3.03;1.25;;;7.00;99.90;;;;;;5009841;28;20030;-77
2023/12/26 04:36:44;;;;;;;2.97;1.30;;;7.00;99.90;;;;;;5014372;28;20075;-74
2023/12/26 04:39:09;;;;;;;2.72;1.02;;;7.10;99.90;;;;;;5012899;28;20022;-77
2023/12/26 04:41:35;;;;;;;3.70;1.30;;;7.10;99.90;;;;;;5009945;28;20049;-76
2023/12/26 04:44:02;;;;;;;4.53;1.40;;;7.10;99.90;;;;;;5005844;28;20105;-76
2023/12/26 04:46:27;;;;;;;3.03;1.08;;;7.00;99.90;;;;;;5014238;28;20028;-76
2023/12/26 04:48:53;;;;;;;3.47;1.35;;;7.10;99.90;;;;;;5007844;28;20957;-75
2023/12/26 04:51:19;;;;;;;3.50;1.27;;;7.10;99.90;;;;;;5018410;28;20110;-76
2023/12/26 04:53:51;;;;;;;3.85;1.10;;;7.10;99.90;;;;;;5012177;28;20018;-76
2023/12/26 04:56:17;;;;;;;3.53;1.08;;;7.10;99.90;;;;;;5009989;28;20049;-76
2023/12/26 04:58:47;;;;;;;4.70;1.35;;;7.10;99.90;;;;;;5008253;28;20027;-74
2023/12/26 05:01:14;;;;;;;3.28;0.93;;;7.10;99.90;;;;;;5011441;28;20036;-77
2023/12/26 05:03:39;;;;;;;3.45;1.25;;;7.10;99.90;;;;;;5012790;28;20030;-75
2023/12/26 05:06:05;;;;;;;4.70;1.30;;;7.20;99.90;;;;;;5013459;28;20040;-75
2023/12/26 05:08:31;;;;;;;4.13;1.30;;;7.10;99.90;;;;;;5007883;28;20693;-74
2023/12/26 05:10:57;;;;;;;5.28;1.27;;;7.10;99.90;;;;;;5013059;28;20028;-75
2023/12/26 05:13:22;;;;;;;3.42;1.00;;;7.10;99.90;;;;;;5013162;28;20909;-74
2023/12/26 05:15:49;;;;;;;3.42;0.95;;;7.10;99.90;;;;;;5010905;28;20112;-76
2023/12/26 05:18:14;;;;;;;2.38;0.98;;;7.20;99.90;;;;;;5014704;28;20582;-76
2023/12/26 05:20:40;;;;;;;2.67;1.50;;;7.20;99.90;;;;;;5011288;28;20030;-75
2023/12/26 05:23:06;;;;;;;4.32;1.27;;;7.20;99.90;;;;;;5013241;28;20021;-75
2023/12/26 05:25:32;;;;;;;7.03;1.25;;;7.20;99.90;;;;;;5007437;28;20080;-75
2023/12/26 05:27:58;;;;;;;8.10;1.40;;;7.20;99.90;;;;;;5025584;28;20369;-75
2023/12/26 05:30:24;;;;;;;2.45;0.90;;;7.20;99.90;;;;;;5010134;28;20030;-75
2023/12/26 05:32:49;;;;;;;3.83;1.23;;;7.20;99.90;;;;;;5012533;28;20057;-76
2023/12/26 05:35:15;;;;;;;3.70;1.20;;;7.20;99.90;;;;;;5010574;28;20045;-75
2023/12/26 05:37:41;;;;;;;4.00;1.40;;;7.20;99.90;;;;;;5011271;28;20422;-75
2023/12/26 05:40:07;;;;;;;6.07;1.50;;;7.20;99.90;;;;;;5010510;28;20512;-76
2023/12/26 05:42:33;;;;;;;5.95;1.98;;;7.20;99.90;;;;;;4998583;28;20025;-75
2023/12/26 05:44:58;;;;;;;4.85;1.48;;;7.20;99.90;;;;;;5009443;28;20370;-75
2023/12/26 05:47:24;;;;;;;7.05;1.17;;;7.10;99.90;;;;;;5011321;28;20029;-75
2023/12/26 05:49:50;;;;;;;3.55;1.27;;;7.20;99.90;;;;;;5015627;28;20017;-75
2023/12/26 05:52:18;;;;;;;3.85;1.10;;;7.20;99.90;;;;;;5017502;28;20515;-76
2023/12/26 05:54:49;;;;;;;3.80;1.02;;;7.20;99.90;;;;;;5013974;28;20373;-76
2023/12/26 05:57:15;;;;;;;4.13;1.40;;;7.20;99.90;;;;;;4997187;28;20029;-76
2023/12/26 05:59:41;;;;;;;5.72;1.20;;;7.20;99.90;;;;;;5012398;28;20043;-77
2023/12/26 06:02:06;;;;;;;5.68;1.08;;;7.20;99.90;;;;;;5012697;28;20040;-76
2023/12/26 06:04:32;;;;;;;3.50;1.10;;;7.20;99.90;;;;;;5014659;28;20392;-76
2023/12/26 06:06:58;;;;;;;5.75;1.48;;;7.20;99.90;;;;;;5005880;28;20028;-76
2023/12/26 06:09:26;;;;;;;5.28;1.38;;;7.20;99.90;;;;;;5002990;28;20038;-76
2023/12/26 06:11:52;;;;;;;6.15;2.17;;;7.20;99.90;;;;;;5012291;28;20040;-76
2023/12/26 06:14:17;;;;;;;4.80;1.33;;;7.20;99.90;;;;;;5008259;28;20034;-76
2023/12/26 06:16:43;;;;;;;3.05;1.25;;;7.20;99.90;;;;;;5010978;28;20026;-76
2023/12/26 06:19:09;;;;;;;5.50;1.10;;;7.20;99.90;;;;;;5015177;28;20472;-76
2023/12/26 06:21:35;;;;;;;3.95;1.13;;;7.20;99.90;;;;;;5011766;28;20046;-76
2023/12/26 06:24:01;;;;;;;5.50;1.52;;;7.20;99.90;;;;;;5009200;28;20499;-76
2023/12/26 06:26:27;;;;;;;2.83;1.45;;;7.20;99.90;;;;;;5014180;28;20026;-77
2023/12/26 06:28:52;;;;;;;5.90;1.70;;;7.20;99.90;;;;;;5016068;28;20029;-76
2023/12/26 06:31:21;;;;;;;4.65;1.27;;;7.20;99.90;;;;;;5010693;28;20113;-76
2023/12/26 06:33:47;;;;;;;2.55;1.02;;;7.20;99.90;;;;;;5012026;28;20101;-79
2023/12/26 06:36:12;;;;;;;5.18;1.40;;;7.20;99.90;;;;;;5016928;28;20120;-76
2023/12/26 06:38:38;;;;;;;2.55;0.82;;;7.10;99.90;;;;;;5014254;28;20022;-76
2023/12/26 06:41:08;;;;;;;7.53;0.93;;;7.20;99.90;;;;;;5013364;28;20017;-75
2023/12/26 06:43:33;;;;;;;4.45;1.20;;;7.20;99.90;;;;;;5010256;28;20022;-76
2023/12/26 06:46:04;;;;;;;5.30;1.20;;;7.20;99.90;;;;;;5011158;28;20028;-74
2023/12/26 06:48:36;;;;;;;6.35;1.10;;;7.20;99.90;;;;;;5009671;28;20085;-75
2023/12/26 06:51:05;;;;;;;5.82;1.35;;;7.20;99.90;;;;;;5031728;23;20053;-76
2023/12/26 06:53:30;;;;;;;3.15;1.00;;;7.20;99.90;;;;;;5013166;28;20034;-76
2023/12/26 06:55:56;;;;;;;6.43;1.23;;;7.20;99.90;;;;;;5019831;28;20021;-76
2023/12/26 06:58:21;;;;;;;5.88;1.48;;;7.20;99.90;;;;;;5012191;28;20056;-77
2023/12/26 07:00:47;;;;;;;4.82;1.20;;;7.20;99.90;;;;;;5018303;28;20032;-76
2023/12/26 07:03:13;;;;;;;4.38;1.15;;;7.20;99.90;;;;;;4998025;28;20522;-77
2023/12/26 07:05:39;;;;;;;2.65;1.17;;;7.20;99.90;;;;;;4999641;28;20026;-77
2023/12/26 07:08:05;;;;;;;5.32;1.17;;;7.20;99.90;;;;;;4998334;28;20089;-77
2023/12/26 07:10:34;;;;;;;4.70;1.10;;;7.20;99.90;;;;;;4997670;28;20513;-77
2023/12/26 07:12:59;;;;;;;2.78;1.35;;;7.20;99.90;;;;;;4995880;28;20058;-77
2023/12/26 07:15:25;;;;;;;3.38;0.68;;;7.20;99.90;;;;;;4995152;28;20057;-77
2023/12/26 07:17:51;;;;;;;4.20;0.90;;;7.20;99.90;;;;;;4996900;28;20026;-76
2023/12/26 07:20:17;;;;;;;2.22;1.05;;;7.20;99.90;;;;;;4995845;28;20040;-77
2023/12/26 07:22:43;;;;;;;3.78;1.55;;;7.30;99.90;;;;;;5001748;28;20073;-77
2023/12/26 07:25:11;;;;;;;6.50;1.30;;;7.30;99.90;;;;;;4998857;28;20061;-77
2023/12/26 07:27:46;;;;;;;6.03;1.13;;;7.30;99.90;;;;;;4996734;28;20088;-76
2023/12/26 07:30:12;;;;;;;2.85;1.10;;;7.30;99.90;;;;;;4994339;28;20089;-76
2023/12/26 07:32:40;;;;;;;3.22;1.30;;;7.30;99.90;;;;;;4995121;28;20418;-76
2023/12/26 07:35:06;;;;;;;6.60;1.10;;;7.30;99.90;;;;;;4992363;28;20026;-76
2023/12/26 07:37:35;;;;;;;3.00;0.98;;;7.30;99.90;;;;;;4981699;28;20362;-70
2023/12/26 07:40:10;;;;;;;4.53;1.25;;;7.60;99.90;;;;;;4992699;28;20476;-71
2023/12/26 07:42:36;;;;;;;3.90;1.20;;;8.00;99.90;;;;;;4977432;28;20489;-71
2023/12/26 07:45:08;;;;;;;2.88;0.80;;;8.30;99.90;;;;;;4994712;28;20101;-70
2023/12/26 07:47:34;;;;;;;2.67;0.90;;;8.40;99.90;;;;;;4991375;28;20030;-70
2023/12/26 07:50:15;;;;;;;4.32;1.20;;;8.50;99.90;;;;;;4995942;28;20022;-70
2023/12/26 07:52:41;;;;;;;4.05;1.23;;;8.70;99.90;;;;;;4990080;28;20033;-71
2023/12/26 07:55:07;;;;;;;5.03;0.98;;;8.90;99.90;;;;;;4983249;28;20029;-70
2023/12/26 07:57:36;;;;;;;2.10;1.00;;;8.80;99.90;;;;;;4996878;28;20018;-78
2023/12/26 08:00:02;;;;;;;2.90;0.90;;;8.70;99.90;;;;;;5000925;28;20144;-78
2023/12/26 08:02:30;;;;;;;3.20;1.23;;;8.50;99.90;;;;;;4995765;28;20027;-75
2023/12/26 08:04:59;;;;;;;2.67;1.02;;;8.40;99.90;;;;;;4994186;28;20103;-76
2023/12/26 08:07:29;;;;;;;3.35;1.40;;;8.30;99.90;;;;;;4975778;28;20060;-75
2023/12/26 08:09:55;;;;;;;4.22;1.10;;;8.20;99.90;;;;;;4994219;28;20034;-76
2023/12/26 08:12:20;;;;;;;7.18;1.38;;;8.10;99.90;;;;;;4986852;28;20105;-76
2023/12/26 08:14:49;;;;;;;12.85;1.42;;;8.10;99.90;;;;;;4995012;28;20149;-76
2023/12/26 08:17:14;;;;;;;5.07;1.55;;;8.00;99.90;;;;;;4998454;28;20029;-77
2023/12/26 08:19:40;;;;;;;5.38;1.42;;;7.90;99.90;;;;;;4999984;28;20034;-76
2023/12/26 08:22:09;;;;;;;5.50;1.00;;;7.90;99.90;;;;;;4991034;28;20432;-76
2023/12/26 08:24:40;;;;;;;2.72;1.20;;;7.90;99.90;;;;;;4992432;28;20109;-75
2023/12/26 08:27:12;;;;;;;2.83;1.00;;;7.90;99.90;;;;;;4996259;28;20031;-76
2023/12/26 08:29:37;;;;;;;3.25;1.25;;;7.90;99.90;;;;;;4989331;28;20038;-76
2023/12/26 08:32:03;;;;;;;2.72;1.10;;;7.90;99.90;;;;;;4993453;28;20045;-76
2023/12/26 08:34:29;;;;;;;4.45;1.50;;;7.90;99.90;;;;;;4996446;28;20092;-75
2023/12/26 08:36:55;;;;;;;2.92;1.25;;;7.90;99.90;;;;;;4991591;28;20025;-76
2023/12/26 08:39:23;;;;;;;5.70;1.20;;;7.90;99.90;;;;;;4994744;28;20489;-75
2023/12/26 08:41:52;;;;;;;4.70;1.02;;;7.90;99.90;;;;;;4993645;28;20029;-75
2023/12/26 08:44:17;;;;;;;3.58;1.20;;;7.90;99.90;;;;;;4987396;28;20037;-75
2023/12/26 08:46:46;;;;;;;9.88;2.38;;;7.90;99.90;;;;;;4991130;28;20439;-76
2023/12/26 08:49:12;;;;;;;3.78;1.33;;;7.90;99.90;;;;;;4991630;28;20026;-75
2023/12/26 08:51:41;;;;;;;5.55;0.98;;;7.90;99.90;;;;;;4987133;28;20040;-75
2023/12/26 08:54:11;;;;;;;4.15;1.00;;;8.00;99.90;;;;;;4988580;28;20034;-75
2023/12/26 08:56:40;;;;;;;2.22;0.75;;;8.00;99.90;;;;;;4997201;28;20021;-75
2023/12/26 08:59:09;;;;;;;3.63;1.58;;;8.00;99.90;;;;;;4996641;28;20026;-76
2023/12/26 09:01:35;;;;;;;4.38;1.65;;;8.00;99.90;;;;;;4991352;28;20111;-75
2023/12/26 09:04:02;;;;;;;3.80;1.40;;;8.10;99.90;;;;;;4995932;28;20026;-75
2023/12/26 09:06:28;;;;;;;4.45;1.50;;;8.00;99.90;;;;;;4992702;28;20092;-75
2023/12/26 09:08:54;;;;;;;4.85;1.15;;;8.10;99.90;;;;;;4994217;28;20173;-75
2023/12/26 09:11:19;;;;;;;4.55;1.10;;;8.10;99.90;;;;;;4974275;28;20042;-75
2023/12/26 09:13:45;;;;;;;3.17;1.10;;;8.10;99.90;;;;;;4997109;28;20034;-75
2023/12/26 09:16:11;;;;;;;2.10;1.10;;;8.20;99.90;;;;;;4998529;28;20053;-75
2023/12/26 09:18:37;;;;;;;5.22;1.05;;;8.20;99.90;;;;;;4992119;28;20084;-75
2023/12/26 09:21:03;;;;;;;3.60;1.38;;;8.20;99.90;;;;;;4991112;28;20058;-75
2023/12/26 09:23:29;;;;;;;4.50;1.10;;;8.20;99.90;;;;;;4990223;28;20033;-76
2023/12/26 09:25:54;;;;;;;5.80;1.67;;;8.30;99.90;;;;;;4993311;28;20046;-75
2023/12/26 09:28:20;;;;;;;5.72;1.30;;;8.30;99.90;;;;;;4995684;28;20030;-75
2023/12/26 09:30:46;;;;;;;5.22;1.23;;;8.30;99.90;;;;;;4992774;28;20028;-75
2023/12/26 09:33:11;;;;;;;2.30;1.20;;;8.30;99.90;;;;;;4971020;28;20796;-75
2023/12/26 09:35:37;;;;;;;7.30;1.65;;;8.30;99.90;;;;;;4992880;28;20061;-75
2023/12/26 09:38:06;;;;;;;4.45;1.15;;;8.30;99.90;;;;;;4991032;28;20031;-75
2023/12/26 09:40:31;;;;;;;6.15;1.20;;;8.30;99.90;;;;;;4991582;28;20596;-76
2023/12/26 09:43:03;;;;;;;3.08;1.17;;;8.40;99.90;;;;;;4995446;28;20300;-76
2023/12/26 09:45:32;;;;;;;4.47;1.50;;;8.40;99.90;;;;;;4993233;28;20035;-76
2023/12/26 09:48:06;;;;;;;3.38;1.30;;;8.40;99.90;;;;;;4988807;28;20050;-76
2023/12/26 09:50:32;;;;;;;6.90;1.58;;;8.40;99.90;;;;;;4993496;28;20072;-76
2023/12/26 09:53:08;;;;;;;4.80;1.23;;;8.50;99.90;;;;;;4993157;28;20037;-76
2023/12/26 09:55:34;;;;;;;6.03;1.20;;;8.50;99.90;;;;;;4994080;28;20026;-76
2023/12/26 09:58:01;;;;;;;2.97;1.35;;;8.50;99.90;;;;;;4997415;28;20117;-76
2023/12/26 10:00:29;;;;;;;4.32;1.58;;;8.50;99.90;;;;;;4997988;28;20895;-75
2023/12/26 10:02:56;;;;;;;6.57;1.58;;;8.50;99.90;;;;;;4990851;28;20034;-74
2023/12/26 10:05:22;;;;;;;4.57;1.40;;;8.60;99.90;;;;;;4989402;28;20072;-75
2023/12/26 10:07:53;;;;;;;3.78;1.35;;;8.60;99.90;;;;;;4991192;28;20436;-75
2023/12/26 10:10:20;;;;;;;6.10;1.42;;;8.60;99.90;;;;;;4973842;28;20407;-75
2023/12/26 10:12:49;;;;;;;11.65;2.10;;;8.60;99.90;;;;;;4994890;28;20199;-75
2023/12/26 10:15:16;;;;;;;5.10;1.63;;;8.60;99.90;;;;;;4998097;28;20105;-74
2023/12/26 10:17:43;;;;;;;8.15;1.23;;;8.70;99.90;;;;;;4994734;28;20134;-74
2023/12/26 10:20:12;;;;;;;6.35;1.50;;;8.60;99.90;;;;;;4998048;28;20109;-75
2023/12/26 10:22:41;;;;;;;5.38;1.83;;;8.70;99.90;;;;;;4994715;28;20120;-75
2023/12/26 10:25:08;;;;;;;6.53;1.77;;;8.70;99.90;;;;;;4989719;28;20376;-75
2023/12/26 10:27:34;;;;;;;4.97;1.27;;;8.70;99.90;;;;;;4993761;28;20186;-75
2023/12/26 10:30:03;;;;;;;7.43;1.70;;;8.80;99.90;;;;;;4995032;28;20559;-74
2023/12/26 10:32:31;;;;;;;4.75;1.40;;;8.80;99.90;;;;;;4994679;28;20079;-74
2023/12/26 10:35:15;;;;;;;4.90;2.03;;;8.80;99.90;;;;;;4992167;28;20137;-74
2023/12/26 10:37:47;;;;;;;4.28;1.67;;;8.80;99.90;;;;;;4995285;28;20053;-75
2023/12/26 10:40:15;;;;;;;6.97;2.10;;;8.90;99.90;;;;;;4991492;28;20124;-75
2023/12/26 10:42:41;;;;;;;4.95;1.90;;;8.90;99.90;;;;;;4995968;28;20108;-75
2023/12/26 10:45:08;;;;;;;3.55;1.48;;;9.00;99.90;;;;;;4996416;28;20129;-75
2023/12/26 10:47:42;;;;;;;2.47;1.20;;;9.00;99.90;;;;;;4994158;28;20382;-76
2023/12/26 10:50:10;;;;;;;4.60;1.25;;;9.00;99.90;;;;;;4991298;28;20141;-75
2023/12/26 10:52:41;;;;;;;3.58;1.38;;;9.10;99.90;;;;;;4996392;28;20029;-74
2023/12/26 10:55:08;;;;;;;5.75;1.80;;;9.10;99.90;;;;;;4985261;28;20022;-74
2023/12/26 10:57:36;;;;;;;4.40;1.35;;;9.10;99.90;;;;;;4987008;28;20105;-74
2023/12/26 11:00:49;;;;;;;7.45;1.40;;;9.20;99.90;;;;;;4989245;28;20026;-73
2023/12/26 13:52:36;;;;;;;3.45;0.70;;;10.60;99.90;;;;;;4996325;28;20550;-72
2023/12/26 13:55:39;;;;;;;6.07;1.10;;;10.50;99.90;;;;;;4991143;28;20069;-72
2023/12/26 13:58:48;;;;;;;2.00;0.90;;;10.50;99.90;;;;;;4985507;28;20027;-72
2023/12/26 14:01:51;;;;;;;2.75;1.20;;;10.50;99.90;;;;;;4991856;28;20113;-72
2023/12/26 14:05:03;;;;;;;2.42;0.90;;;10.40;99.90;;;;;;4993814;28;20023;-72
2023/12/26 14:08:06;;;;;;;5.28;1.33;;;10.30;99.90;;;;;;4996991;28;20031;-72
2023/12/26 14:11:09;;;;;;;1.65;0.80;;;10.30;99.90;;;;;;4999477;28;20034;-72
2023/12/26 14:14:12;;;;;;;2.60;0.80;;;10.30;99.90;;;;;;4979125;28;20022;-72
2023/12/26 14:17:19;;;;;;;4.22;0.95;;;10.30;99.90;;;;;;4989762;28;20084;-72
2023/12/26 14:20:22;;;;;;;3.78;0.70;;;10.30;99.90;;;;;;4994366;28;20481;-73
2023/12/26 14:26:47;;;;;;;0.98;0.65;;;10.20;99.90;;;;;;5000759;28;20029;-72
2023/12/26 14:29:53;;;;;;;1.92;0.65;;;10.10;99.90;;;;;;4993097;28;20034;-72
2023/12/26 14:32:56;;;;;;;3.25;0.70;;;10.10;99.90;;;;;;4992701;28;20113;-72
2023/12/26 14:35:59;;;;;;;2.05;0.80;;;10.10;99.90;;;;;;4994389;28;20026;-72
2023/12/26 14:39:08;;;;;;;3.53;1.02;;;10.10;99.90;;;;;;4980131;28;20440;-72
2023/12/26 14:42:20;;;;;;;3.70;1.00;;;10.00;99.90;;;;;;4999182;28;20026;-72
2023/12/26 14:45:26;;;;;;;4.32;1.10;;;10.00;99.90;;;;;;4999657;28;20033;-72
2023/12/26 14:48:29;;;;;;;4.07;1.17;;;10.00;99.90;;;;;;4994928;28;20103;-72
2023/12/26 14:51:33;;;;;;;6.00;1.27;;;10.00;99.90;;;;;;4984495;28;20550;-72
2023/12/26 14:54:51;;;;;;;5.25;1.20;;;10.00;99.90;;;;;;5001197;28;20030;-72
2023/12/26 14:58:05;;;;;;;3.50;0.90;;;9.90;99.90;;;;;;4994854;28;20068;-72
2023/12/26 15:01:17;;;;;;;2.97;0.75;;;9.90;99.90;;;;;;4993892;28;20023;-72
2023/12/26 15:03:43;;;;;;;5.38;1.30;;;9.90;99.90;;;;;;4995917;28;20015;-72
2023/12/26 15:06:15;;;;;;;5.25;1.35;;;9.80;99.90;;;;;;4998214;28;20038;-72
2023/12/26 15:08:47;;;;;;;2.92;1.15;;;9.80;99.90;;;;;;4995507;28;20019;-72
2023/12/26 15:11:17;;;;;;;4.90;1.38;;;9.80;99.90;;;;;;4995480;28;20034;-72
2023/12/26 15:13:48;;;;;;;4.30;2.00;;;9.90;99.90;;;;;;5000226;28;20113;-72
2023/12/26 15:16:20;;;;;;;3.83;1.23;;;9.80;99.90;;;;;;4994592;28;20110;-72
2023/12/26 15:18:46;;;;;;;3.22;1.40;;;9.80;99.90;;;;;;4993382;28;20023;-72
2023/12/26 15:21:12;;;;;;;6.13;2.28;;;9.70;99.90;;;;;;4998315;28;20381;-73
2023/12/26 15:23:38;;;;;;;5.32;2.17;;;9.70;99.90;;;;;;4993016;28;20019;-72
2023/12/26 15:26:21;;;;;;;5.45;1.52;;;9.70;99.90;;;;;;4999751;28;20398;-72
2023/12/26 15:28:47;;;;;;;4.15;1.60;;;9.70;99.90;;;;;;4992699;28;20054;-72
2023/12/26 15:31:15;;;;;;;3.20;1.33;;;9.70;99.90;;;;;;4989825;28;20479;-72
2023/12/26 15:33:49;;;;;;;4.47;1.25;;;9.60;99.90;;;;;;5001187;28;20497;-72
2023/12/26 15:36:19;;;;;;;4.70;1.35;;;9.60;99.90;;;;;;5003029;28;20057;-72
2023/12/26 15:38:53;;;;;;;4.90;1.10;;;9.60;99.90;;;;;;4998620;28;20023;-73
2023/12/26 15:41:28;;;;;;;6.97;1.58;;;9.60;99.90;;;;;;4994278;28;20060;-72
2023/12/26 15:44:00;;;;;;;4.85;1.42;;;9.60;99.90;;;;;;4995641;28;20481;-70
2023/12/26 15:46:32;;;;;;;4.80;1.60;;;9.60;99.90;;;;;;4996400;28;20077;-69
2023/12/26 15:48:57;;;;;;;5.07;1.45;;;9.60;99.90;;;;;;5000635;28;20041;-69
2023/12/26 15:51:24;;;;;;;4.80;1.42;;;9.70;99.90;;;;;;4981607;28;20030;-70
2023/12/26 15:53:53;;;;;;;5.03;1.88;;;9.70;99.90;;;;;;4975955;28;20122;-69
2023/12/26 15:56:27;;;;;;;4.70;1.30;;;9.70;99.90;;;;;;4998796;28;20018;-70
2023/12/26 15:58:53;;;;;;;2.65;1.50;;;9.80;99.90;;;;;;4993632;28;20061;-73
2023/12/26 16:01:22;;;;;;;5.78;1.88;;;9.80;99.90;;;;;;4985711;28;20437;-73
2023/12/26 16:03:51;;;;;;;6.00;1.73;;;9.80;99.90;;;;;;4997778;28;20038;-72